createdAt,value
2022-10-10T00:01:54.394Z,0.43
2022-10-10T00:04:24.050Z,0.75
2022-10-10T00:06:52.294Z,0.60
2022-10-10T00:09:20.568Z,0.40
2022-10-10T00:11:48.846Z,0.63
2022-10-10T00:14:17.203Z,0.70
2022-10-10T00:16:45.488Z,0.65
2022-10-10T00:19:13.778Z,0.40
2022-10-10T00:21:43.431Z,1.23
2022-10-10T00:24:11.808Z,0.70
2022-10-10T00:26:40.141Z,0.45
2022-10-10T00:29:08.432Z,0.50
2022-10-10T00:31:36.755Z,0.98
2022-10-10T00:34:05.071Z,0.98
2022-10-10T00:36:33.309Z,0.52
2022-10-10T00:39:02.970Z,0.30
2022-10-10T00:41:31.291Z,0.43
2022-10-10T00:44:03.404Z,0.75
2022-10-10T00:46:31.711Z,0.82
2022-10-10T00:49:00.265Z,0.93
2022-10-10T00:51:28.624Z,1.30
2022-10-10T00:53:58.464Z,1.02
2022-10-10T00:56:29.898Z,0.75
2022-10-10T00:58:59.764Z,0.80
2022-10-10T01:01:28.328Z,0.43
2022-10-10T01:03:58.959Z,0.93
2022-10-10T01:06:27.330Z,1.00
2022-10-10T01:08:56.496Z,0.70
2022-10-10T01:11:36.804Z,0.98
2022-10-10T01:14:10.301Z,1.27
2022-10-10T01:16:42.531Z,0.98
2022-10-10T01:19:17.835Z,1.45
2022-10-10T01:21:53.183Z,1.02
2022-10-10T01:24:39.057Z,0.47
2022-10-10T01:27:18.099Z,0.77
2022-10-10T01:29:50.180Z,0.60
2022-10-10T01:32:20.040Z,0.80
2022-10-10T01:34:53.403Z,1.27
2022-10-10T01:37:22.895Z,0.95
2022-10-10T01:39:54.219Z,0.65
2022-10-10T01:42:25.005Z,1.42
2022-10-10T01:44:54.632Z,1.02
2022-10-10T01:47:23.435Z,0.90
2022-10-10T01:49:53.362Z,1.00
2022-10-10T01:52:28.449Z,1.20
2022-10-10T01:55:03.369Z,1.90
2022-10-10T01:57:36.342Z,1.25
2022-10-10T02:00:08.832Z,0.98
2022-10-10T02:02:41.392Z,1.77
2022-10-10T02:05:12.526Z,1.48
2022-10-10T02:07:43.609Z,1.40
2022-10-10T02:10:13.271Z,1.17
2022-10-10T02:12:41.681Z,0.93
2022-10-10T02:15:14.156Z,1.90
2022-10-10T02:17:43.434Z,1.13
2022-10-10T02:20:13.235Z,1.48
2022-10-10T02:22:43.192Z,1.23
2022-10-10T02:25:11.595Z,1.30
2022-10-10T02:27:44.776Z,1.95
2022-10-10T02:30:15.243Z,2.53
2022-10-10T02:32:45.062Z,1.55
2022-10-10T02:35:16.222Z,2.88
2022-10-10T02:37:45.251Z,2.78
2022-10-10T02:40:16.114Z,1.77
2022-10-10T02:42:44.772Z,1.27
2022-10-10T02:45:14.559Z,1.45
2022-10-10T02:47:42.862Z,2.22
2022-10-10T02:50:11.404Z,1.38
2022-10-10T02:52:39.735Z,1.33
2022-10-10T02:55:08.443Z,1.73
2022-10-10T02:57:36.750Z,0.93
2022-10-10T03:00:06.190Z,1.10
2022-10-10T03:02:35.931Z,1.77
2022-10-10T03:05:05.937Z,1.48
2022-10-10T03:07:34.451Z,1.65
2022-10-10T03:10:02.699Z,1.83
2022-10-10T03:12:30.963Z,1.52
2022-10-10T03:14:59.239Z,1.00
2022-10-10T03:17:27.497Z,1.90
2022-10-10T03:19:57.355Z,1.10
2022-10-10T03:22:25.633Z,1.33
2022-10-10T03:24:53.892Z,1.33
2022-10-10T03:27:22.375Z,1.60
2022-10-10T03:29:50.662Z,1.58
2022-10-10T03:32:18.970Z,1.45
2022-10-10T03:34:47.297Z,1.67
2022-10-10T03:37:16.934Z,0.93
2022-10-10T03:39:45.310Z,0.93
2022-10-10T03:42:13.689Z,1.80
2022-10-10T03:44:42.020Z,1.30
2022-10-10T03:47:10.287Z,1.30
2022-10-10T03:49:38.554Z,1.55
2022-10-10T03:52:06.840Z,1.60
2022-10-10T03:54:36.472Z,1.10
2022-10-10T03:57:04.785Z,1.40
2022-10-10T03:59:33.103Z,1.48
2022-10-10T04:02:01.397Z,2.05
2022-10-10T04:04:29.659Z,1.35
2022-10-10T04:06:58.026Z,1.15
2022-10-10T04:09:26.334Z,0.93
2022-10-10T04:11:56.073Z,0.93
2022-10-10T04:14:24.552Z,1.45
2022-10-10T04:16:53.009Z,0.93
2022-10-10T04:19:21.512Z,1.05
2022-10-10T04:21:50.054Z,1.27
2022-10-10T04:24:18.439Z,1.52
2022-10-10T04:26:46.749Z,0.70
2022-10-10T04:29:16.476Z,1.65
2022-10-10T04:31:44.837Z,1.83
2022-10-10T04:34:13.116Z,1.17
2022-10-10T04:36:41.416Z,1.50
2022-10-10T04:39:09.784Z,1.42
2022-10-10T04:41:38.114Z,1.73
2022-10-10T04:44:06.371Z,1.10
2022-10-10T04:46:36.030Z,1.45
2022-10-10T04:49:04.434Z,2.05
2022-10-10T04:51:32.999Z,1.95
2022-10-10T04:54:01.263Z,1.85
2022-10-10T04:56:29.642Z,1.20
2022-10-10T04:58:57.965Z,1.67
2022-10-10T05:01:27.441Z,0.90
2022-10-10T05:03:57.352Z,1.40
2022-10-10T05:06:25.652Z,1.60
2022-10-10T05:08:53.953Z,1.42
2022-10-10T05:11:22.321Z,1.00
2022-10-10T05:13:50.837Z,1.77
2022-10-10T05:16:19.154Z,1.40
2022-10-10T05:18:47.428Z,0.98
2022-10-10T05:21:17.068Z,0.70
2022-10-10T05:23:45.352Z,1.52
2022-10-10T05:26:14.106Z,1.88
2022-10-10T05:28:42.445Z,1.55
2022-10-10T05:31:11.560Z,1.98
2022-10-10T05:33:39.894Z,1.80
2022-10-10T05:36:10.606Z,1.10
2022-10-10T05:38:40.652Z,2.50
2022-10-10T05:41:09.460Z,1.35
2022-10-10T05:43:38.074Z,1.27
2022-10-10T05:46:06.547Z,1.95
2022-10-10T05:48:34.868Z,1.55
2022-10-10T05:51:03.544Z,1.40
2022-10-10T05:53:31.974Z,1.50
2022-10-10T05:56:02.005Z,1.73
2022-10-10T05:58:30.751Z,1.38
2022-10-10T06:01:03.587Z,1.85
2022-10-10T06:03:32.145Z,1.42
2022-10-10T06:06:00.799Z,1.10
2022-10-10T06:08:31.238Z,1.25
2022-10-10T06:11:04.159Z,1.23
2022-10-10T06:13:32.469Z,1.75
2022-10-10T06:16:00.856Z,1.80
2022-10-10T06:18:29.372Z,1.40
2022-10-10T06:20:57.693Z,2.33
2022-10-10T06:23:25.977Z,1.05
2022-10-10T06:25:54.251Z,1.40
2022-10-10T06:28:24.047Z,1.00
2022-10-10T06:30:52.766Z,1.33
2022-10-10T06:33:21.255Z,1.73
2022-10-10T06:35:50.557Z,1.17
2022-10-10T06:38:19.128Z,1.02
2022-10-10T06:40:47.764Z,1.63
2022-10-10T06:43:16.918Z,1.80
2022-10-10T06:45:47.460Z,1.60
2022-10-10T06:48:17.009Z,0.63
2022-10-10T06:50:45.431Z,1.17
2022-10-10T06:53:13.801Z,1.10
2022-10-10T06:55:48.144Z,1.20
2022-10-10T06:58:16.531Z,1.10
2022-10-10T07:00:51.623Z,0.52
2022-10-10T07:03:20.745Z,0.70
2022-10-10T07:05:53.191Z,0.98
2022-10-10T07:08:21.582Z,0.50
2022-10-10T07:10:50.052Z,0.80
2022-10-10T07:13:18.738Z,0.55
2022-10-10T07:15:47.164Z,0.90
2022-10-10T07:18:18.915Z,0.68
2022-10-10T07:20:47.443Z,1.10
2022-10-10T07:23:15.903Z,1.40
2022-10-10T07:25:44.784Z,0.40
2022-10-10T07:28:13.484Z,0.90
2022-10-10T07:30:43.715Z,0.40
2022-10-10T07:33:34.806Z,0.80
2022-10-10T07:36:04.904Z,0.70
2022-10-10T07:38:33.363Z,0.50
2022-10-10T07:41:01.891Z,1.10
2022-10-10T07:43:30.602Z,1.20
2022-10-10T07:48:33.007Z,0.75
2022-10-10T07:51:01.361Z,0.75
2022-10-10T07:53:31.337Z,0.77
2022-10-10T07:55:59.939Z,0.80
2022-10-10T07:58:28.580Z,1.35
2022-10-10T08:01:06.269Z,0.55
2022-10-10T08:03:35.214Z,0.88
2022-10-10T08:06:05.628Z,0.77
2022-10-10T08:08:40.806Z,1.08
2022-10-10T08:11:13.595Z,0.70
2022-10-10T08:13:42.558Z,1.02
2022-10-10T08:16:11.763Z,0.80
2022-10-10T08:18:40.514Z,1.00
2022-10-10T08:21:24.581Z,0.70
2022-10-10T08:23:54.571Z,0.60
2022-10-10T08:26:24.558Z,1.23
2022-10-10T08:28:53.060Z,0.65
2022-10-10T08:31:22.254Z,0.70
2022-10-10T08:33:51.174Z,0.65
2022-10-10T08:36:21.162Z,0.80
2022-10-10T08:38:49.887Z,0.95
2022-10-10T08:41:22.306Z,0.80
2022-10-10T08:43:52.543Z,0.55
2022-10-10T08:46:24.797Z,0.73
2022-10-10T08:48:55.909Z,0.63
2022-10-10T08:51:28.154Z,0.47
2022-10-10T08:53:58.936Z,0.70
2022-10-10T08:56:32.289Z,0.50
2022-10-10T08:59:02.985Z,0.50
2022-10-10T09:01:34.470Z,0.50
2022-10-10T09:04:03.683Z,0.82
2022-10-10T09:06:38.746Z,0.50
2022-10-10T09:11:45.211Z,0.38
2022-10-10T09:14:18.193Z,0.40
2022-10-10T09:16:49.320Z,0.38
2022-10-10T09:19:26.393Z,1.38
2022-10-10T09:21:57.701Z,0.50
2022-10-10T09:24:28.284Z,0.80
2022-10-10T09:27:00.044Z,0.55
2022-10-10T09:29:30.879Z,1.00
2022-10-10T09:32:00.745Z,0.82
2022-10-10T09:34:33.367Z,0.40
2022-10-10T09:37:02.942Z,0.60
2022-10-10T09:39:35.171Z,0.50
2022-10-10T09:42:11.718Z,0.60
2022-10-10T09:47:22.797Z,0.63
2022-10-10T09:49:51.357Z,0.50
2022-10-10T09:52:27.104Z,0.65
2022-10-10T09:54:57.714Z,0.75
2022-10-10T09:57:30.590Z,0.70
2022-10-10T10:00:03.638Z,0.45
2022-10-10T10:02:33.181Z,0.70
2022-10-10T10:05:01.624Z,0.43
2022-10-10T10:07:31.220Z,0.45
2022-10-10T10:10:01.292Z,0.85
2022-10-10T10:12:33.215Z,0.40
2022-10-10T10:15:03.996Z,0.50
2022-10-10T10:17:32.436Z,0.43
2022-10-10T10:20:00.793Z,0.57
2022-10-10T10:22:35.727Z,0.50
2022-10-10T10:27:33.887Z,0.50
2022-10-10T10:30:02.259Z,0.65
2022-10-10T10:32:41.450Z,0.52
2022-10-10T10:35:13.940Z,0.90
2022-10-10T10:37:46.217Z,0.60
2022-10-10T10:40:21.734Z,0.77
2022-10-10T10:43:07.553Z,0.50
2022-10-10T10:45:40.116Z,0.68
2022-10-10T10:48:12.040Z,0.43
2022-10-10T10:50:46.575Z,1.13
2022-10-10T10:53:18.889Z,0.47
2022-10-10T10:55:48.886Z,1.08
2022-10-10T10:59:05.757Z,0.50
2022-10-10T11:01:51.873Z,0.40
2022-10-10T11:05:19.251Z,0.50
2022-10-10T11:07:20.652Z,0.73
2022-10-10T11:09:52.333Z,0.50
2022-10-10T11:12:25.431Z,0.90
2022-10-10T11:14:56.254Z,0.40
2022-10-10T11:17:28.557Z,0.30
2022-10-10T11:19:58.652Z,0.60
2022-10-10T11:22:28.066Z,0.57
2022-10-10T11:25:00.035Z,0.50
2022-10-10T11:27:31.821Z,0.65
2022-10-10T11:30:05.270Z,0.38
2022-10-10T11:32:37.813Z,0.73
2022-10-10T11:35:14.158Z,0.60
2022-10-10T11:37:44.399Z,0.30
2022-10-10T11:40:20.221Z,0.60
2022-10-10T11:42:51.490Z,0.47
2022-10-10T11:45:23.041Z,0.55
2022-10-10T11:47:57.020Z,0.17
2022-10-10T11:50:28.168Z,0.43
2022-10-10T11:53:00.822Z,0.40
2022-10-10T11:55:33.417Z,0.50
2022-10-10T11:58:19.409Z,0.38
2022-10-10T12:00:49.642Z,0.20
2022-10-10T12:03:19.683Z,0.47
2022-10-10T12:05:50.848Z,0.40
2022-10-10T12:08:20.733Z,0.60
2022-10-10T12:10:51.801Z,0.82
2022-10-10T12:13:28.529Z,0.40
2022-10-10T12:15:58.328Z,0.40
2022-10-10T12:18:30.004Z,0.65
2022-10-10T12:21:09.404Z,0.60
2022-10-10T12:23:38.030Z,0.50
2022-10-10T12:26:06.598Z,0.30
2022-10-10T12:28:39.437Z,0.30
2022-10-10T12:31:21.305Z,0.40
2022-10-10T12:34:05.178Z,0.45
2022-10-10T12:37:07.669Z,0.28
2022-10-10T12:39:41.081Z,0.40
2022-10-10T12:42:28.259Z,0.35
2022-10-10T12:44:56.759Z,0.73
2022-10-10T12:48:03.310Z,0.60
2022-10-10T12:50:29.592Z,0.35
2022-10-10T12:52:59.509Z,0.38
2022-10-10T12:55:28.927Z,0.40
2022-10-10T12:57:59.211Z,0.43
2022-10-10T13:00:28.912Z,0.40
2022-10-10T13:02:58.905Z,0.60
2022-10-10T13:05:32.125Z,0.70
2022-10-10T13:08:01.937Z,0.52
2022-10-10T13:10:31.591Z,0.63
2022-10-10T13:13:01.464Z,0.60
2022-10-10T13:15:30.438Z,0.50
2022-10-10T13:17:59.396Z,0.52
2022-10-10T13:20:33.953Z,0.38
2022-10-10T13:23:05.292Z,0.47
2022-10-10T13:25:34.517Z,0.30
2022-10-10T13:28:03.843Z,0.50
2022-10-10T13:30:32.678Z,0.50
2022-10-10T13:33:01.209Z,0.40
2022-10-10T13:35:32.522Z,0.70
2022-10-10T13:38:01.754Z,0.38
2022-10-10T13:40:30.319Z,0.40
2022-10-10T13:42:58.820Z,0.40
2022-10-10T13:45:32.383Z,0.50
2022-10-10T13:48:13.092Z,0.35
2022-10-10T13:50:55.885Z,0.38
2022-10-10T13:53:25.641Z,0.50
2022-10-10T13:56:00.046Z,0.25
2022-10-10T13:58:28.648Z,0.47
2022-10-10T14:00:58.134Z,0.60
2022-10-10T14:03:26.998Z,0.35
2022-10-10T14:05:57.373Z,0.38
2022-10-10T14:08:28.648Z,0.32
2022-10-10T14:10:59.138Z,0.30
2022-10-10T14:13:28.339Z,0.35
2022-10-10T14:16:11.251Z,0.40
2022-10-10T14:18:39.709Z,0.20
2022-10-10T14:21:09.877Z,0.40
2022-10-10T14:23:39.016Z,0.40
2022-10-10T14:26:08.053Z,0.55
2022-10-10T14:28:38.925Z,0.68
2022-10-10T14:31:07.509Z,0.35
2022-10-10T14:33:36.104Z,0.22
2022-10-10T14:36:04.615Z,0.50
2022-10-10T14:38:34.777Z,0.40
2022-10-10T14:41:03.485Z,0.40
2022-10-10T14:43:32.119Z,0.47
2022-10-10T14:46:02.045Z,0.22
2022-10-10T14:48:30.369Z,0.85
2022-10-10T14:50:59.355Z,0.77
2022-10-10T14:53:28.314Z,0.30
2022-10-10T14:55:58.070Z,0.63
2022-10-10T14:58:26.473Z,0.40
2022-10-10T15:00:55.507Z,0.45
2022-10-10T15:03:23.953Z,0.47
2022-10-10T15:05:52.498Z,0.40
2022-10-10T15:08:21.011Z,0.85
2022-10-10T15:10:49.914Z,0.38
2022-10-10T15:13:20.150Z,1.05
2022-10-10T15:15:48.714Z,0.57
2022-10-10T15:18:49.305Z,1.00
2022-10-10T15:21:09.955Z,0.65
2022-10-10T15:23:38.586Z,0.90
2022-10-10T15:26:07.625Z,0.50
2022-10-10T15:28:37.475Z,0.60
2022-10-10T15:31:06.277Z,0.50
2022-10-10T15:33:34.707Z,0.50
2022-10-10T15:36:09.580Z,0.40
2022-10-10T15:38:38.490Z,0.57
2022-10-10T15:41:08.891Z,0.95
2022-10-10T15:43:45.986Z,0.70
2022-10-10T15:46:14.406Z,0.70
2022-10-10T15:48:42.827Z,0.60
2022-10-10T15:51:11.341Z,1.02
2022-10-10T15:53:39.716Z,0.50
2022-10-10T15:56:10.326Z,0.52
2022-10-10T15:58:38.948Z,0.30
2022-10-10T16:01:12.490Z,0.73
2022-10-10T16:03:40.924Z,0.50
2022-10-10T16:06:09.741Z,0.60
2022-10-10T16:08:38.168Z,0.70
2022-10-10T16:11:07.859Z,0.32
2022-10-10T16:13:36.874Z,0.52
2022-10-10T16:16:06.991Z,0.40
2022-10-10T16:18:40.151Z,0.57
2022-10-10T16:21:10.003Z,0.50
2022-10-10T16:23:38.301Z,0.43
2022-10-10T16:26:09.009Z,0.70
2022-10-10T16:28:37.404Z,0.30
2022-10-10T16:31:06.089Z,0.75
2022-10-10T16:33:34.745Z,0.40
2022-10-10T16:36:09.274Z,0.40
2022-10-10T16:38:37.959Z,0.38
2022-10-10T16:41:06.468Z,0.47
2022-10-10T16:43:36.908Z,0.80
2022-10-10T16:46:05.826Z,0.50
2022-10-10T16:48:35.256Z,0.63
2022-10-10T16:51:06.166Z,0.25
2022-10-10T16:53:35.044Z,0.98
2022-10-10T16:56:04.348Z,0.30
2022-10-10T16:58:33.012Z,0.50
2022-10-10T17:01:05.850Z,0.38
2022-10-10T17:03:34.554Z,0.28
2022-10-10T17:06:03.303Z,0.52
2022-10-10T17:08:33.767Z,0.47
2022-10-10T17:11:02.616Z,0.32
2022-10-10T17:13:31.779Z,0.40
2022-10-10T17:16:16.869Z,0.60
2022-10-10T17:18:48.708Z,0.47
2022-10-10T17:21:18.619Z,1.02
2022-10-10T17:23:48.338Z,0.57
2022-10-10T17:26:17.681Z,0.82
2022-10-10T17:28:46.237Z,0.50
2022-10-10T17:31:16.112Z,0.20
2022-10-10T17:33:48.615Z,0.32
2022-10-10T17:38:49.507Z,0.60
2022-10-10T17:41:18.405Z,0.70
2022-10-10T17:43:47.218Z,0.50
2022-10-10T17:49:06.401Z,0.60
2022-10-10T17:51:35.518Z,0.65
2022-10-10T17:54:06.505Z,0.70
2022-10-10T17:56:35.434Z,0.55
2022-10-10T17:59:06.207Z,0.80
2022-10-10T18:01:35.151Z,0.40
2022-10-10T18:04:03.631Z,0.45
2022-10-10T18:06:33.043Z,0.45
2022-10-10T18:09:01.747Z,0.63
2022-10-10T18:11:32.404Z,0.90
2022-10-10T18:14:01.417Z,1.30
2022-10-10T18:16:32.338Z,0.60
2022-10-10T18:19:00.745Z,0.43
2022-10-10T18:21:29.143Z,0.20
2022-10-10T18:23:57.685Z,0.20
2022-10-10T18:26:27.177Z,0.50
2022-10-10T18:28:57.375Z,0.50
2022-10-10T18:31:26.652Z,0.60
2022-10-10T18:33:55.285Z,0.45
2022-10-10T18:36:24.641Z,0.52
2022-10-10T18:38:53.092Z,0.47
2022-10-10T18:41:22.816Z,0.70
2022-10-10T18:43:51.966Z,0.63
2022-10-10T18:46:23.865Z,0.70
2022-10-10T18:48:54.232Z,0.50
2022-10-10T18:51:24.339Z,0.30
2022-10-10T18:53:53.622Z,0.52
2022-10-10T18:56:24.766Z,0.50
2022-10-10T18:58:55.058Z,0.50
2022-10-10T19:01:26.089Z,0.60
2022-10-10T19:03:55.189Z,0.40
2022-10-10T19:06:24.536Z,0.28
2022-10-10T19:08:53.300Z,0.30
2022-10-10T19:11:22.832Z,0.50
2022-10-10T19:13:51.640Z,0.40
2022-10-10T19:16:20.498Z,0.50
2022-10-10T19:18:50.248Z,0.75
2022-10-10T19:21:18.704Z,0.40
2022-10-10T19:23:47.230Z,0.60
2022-10-10T19:26:16.681Z,0.47
2022-10-10T19:28:45.484Z,0.73
2022-10-10T19:31:15.108Z,0.70
2022-10-10T19:33:43.875Z,0.65
2022-10-10T19:36:14.949Z,0.60
2022-10-10T19:38:43.919Z,0.70
2022-10-10T19:41:14.279Z,0.35
2022-10-10T19:43:42.859Z,0.60
2022-10-10T19:46:12.875Z,0.63
2022-10-10T19:48:41.676Z,0.60
2022-10-10T19:51:10.922Z,0.60
2022-10-10T19:53:40.930Z,0.80
2022-10-10T19:56:10.430Z,0.50
2022-10-10T19:58:38.892Z,0.40
2022-10-10T20:01:10.687Z,0.57
2022-10-10T20:03:39.091Z,0.52
2022-10-10T20:06:07.801Z,0.50
2022-10-10T20:08:36.544Z,0.40
2022-10-10T20:11:06.683Z,0.70
2022-10-10T20:13:36.007Z,0.52
2022-10-10T20:16:06.138Z,0.45
2022-10-10T20:18:35.713Z,0.90
2022-10-10T20:21:11.106Z,0.50
2022-10-10T20:23:42.751Z,0.57
2022-10-10T20:26:16.634Z,0.50
2022-10-10T20:28:45.461Z,0.30
2022-10-10T20:31:15.750Z,0.77
2022-10-10T20:33:45.985Z,0.40
2022-10-10T20:36:16.815Z,0.73
2022-10-10T20:38:45.735Z,0.40
2022-10-10T20:41:15.488Z,0.55
2022-10-10T20:43:43.822Z,0.65
2022-10-10T20:46:13.714Z,0.50
2022-10-10T20:48:42.374Z,0.65
2022-10-10T20:51:11.911Z,0.30
2022-10-10T20:53:41.757Z,0.60
2022-10-10T20:56:11.016Z,0.80
2022-10-10T20:58:42.913Z,0.47
2022-10-10T21:01:12.415Z,0.82
2022-10-10T21:03:42.137Z,1.25
2022-10-10T21:06:26.504Z,0.80
2022-10-10T21:08:55.558Z,0.30
2022-10-10T21:11:25.101Z,0.80
2022-10-10T21:13:56.543Z,0.50
2022-10-10T21:16:26.426Z,0.65
2022-10-10T21:18:57.778Z,1.35
2022-10-10T21:21:27.585Z,0.30
2022-10-10T21:23:56.720Z,0.98
2022-10-10T21:26:26.062Z,0.50
2022-10-10T21:28:56.104Z,0.68
2022-10-10T21:31:25.791Z,0.52
2022-10-10T21:33:54.713Z,1.55
2022-10-10T21:36:24.021Z,0.68
2022-10-10T21:38:52.462Z,0.63
2022-10-10T21:41:21.657Z,0.80
2022-10-10T21:43:52.296Z,0.68
2022-10-10T21:46:24.419Z,0.68
2022-10-10T21:48:53.138Z,0.60
2022-10-10T21:51:21.870Z,0.68
2022-10-10T21:53:50.516Z,0.43
2022-10-10T21:56:19.373Z,0.60
2022-10-10T21:58:47.706Z,0.82
2022-10-10T22:01:17.145Z,0.60
2022-10-10T22:06:30.087Z,0.50
2022-10-10T22:08:59.078Z,0.80
2022-10-10T22:11:29.951Z,0.60
2022-10-10T22:14:02.165Z,0.40
2022-10-10T22:16:30.678Z,0.52
2022-10-10T22:19:00.929Z,0.60
2022-10-10T22:21:31.817Z,0.65
2022-10-10T22:24:01.512Z,0.93
2022-10-10T22:26:30.045Z,0.88
2022-10-10T22:28:58.596Z,0.82
2022-10-10T22:31:27.249Z,0.95
2022-10-10T22:33:55.591Z,0.57
2022-10-10T22:36:25.233Z,0.75
2022-10-10T22:38:53.506Z,0.52
2022-10-10T22:41:21.772Z,0.57
2022-10-10T22:43:50.559Z,0.60
2022-10-10T22:46:19.194Z,0.40
2022-10-10T22:48:47.533Z,0.65
2022-10-10T22:51:17.222Z,0.32
2022-10-10T22:53:47.903Z,0.50
2022-10-10T22:56:16.934Z,1.08
2022-10-10T22:58:45.458Z,0.43
2022-10-10T23:01:15.419Z,0.70
2022-10-10T23:03:43.914Z,0.73
2022-10-10T23:06:12.250Z,0.52
2022-10-10T23:08:40.521Z,0.68
2022-10-10T23:11:10.280Z,1.25
2022-10-10T23:13:38.538Z,0.40
2022-10-10T23:16:07.467Z,0.70
2022-10-10T23:18:36.186Z,0.52
2022-10-10T23:21:04.995Z,0.60
2022-10-10T23:23:33.286Z,1.00
2022-10-10T23:26:01.941Z,0.57
2022-10-10T23:28:31.986Z,0.80
2022-10-10T23:31:02.837Z,0.60
2022-10-10T23:33:34.555Z,0.52
2022-10-10T23:36:06.420Z,0.40
2022-10-10T23:38:35.029Z,0.68
2022-10-10T23:41:03.269Z,0.90
2022-10-10T23:43:32.941Z,0.80
2022-10-10T23:46:01.614Z,0.60
2022-10-10T23:48:30.146Z,1.30
2022-10-10T23:50:59.150Z,0.63
2022-10-10T23:53:27.448Z,1.08
2022-10-10T23:55:55.732Z,0.52
2022-10-10T23:58:24.083Z,0.68
